sensor_id;sensor_type;location;lat;lon;timestamp;temperature;humidity
46043;DHT22;32533;-33.854;18.542;2022-10-19T00:01:45;21.90;78.60
46043;DHT22;32533;-33.854;18.542;2022-10-19T02:21:21;20.70;78.50
46043;DHT22;32533;-33.854;18.542;2022-10-19T02:23:48;20.70;77.70
46043;DHT22;32533;-33.854;18.542;2022-10-19T02:26:15;20.70;77.40
46043;DHT22;32533;-33.854;18.542;2022-10-19T02:28:41;20.70;76.90
46043;DHT22;32533;-33.854;18.542;2022-10-19T02:31:08;20.80;76.40
46043;DHT22;32533;-33.854;18.542;2022-10-19T02:33:36;20.70;76.00
46043;DHT22;32533;-33.854;18.542;2022-10-19T02:36:02;20.80;76.00
46043;DHT22;32533;-33.854;18.542;2022-10-19T02:38:29;20.80;75.90
46043;DHT22;32533;-33.854;18.542;2022-10-19T02:43:23;20.80;75.70
46043;DHT22;32533;-33.854;18.542;2022-10-19T02:46:04;20.70;75.60
46043;DHT22;32533;-33.854;18.542;2022-10-19T02:48:32;20.70;75.50
46043;DHT22;32533;-33.854;18.542;2022-10-19T02:51:00;20.70;75.40
46043;DHT22;32533;-33.854;18.542;2022-10-19T02:53:27;20.70;75.20
46043;DHT22;32533;-33.854;18.542;2022-10-19T02:55:54;20.70;75.20
46043;DHT22;32533;-33.854;18.542;2022-10-19T02:58:20;20.70;75.10
46043;DHT22;32533;-33.854;18.542;2022-10-19T03:00:47;20.70;74.90
46043;DHT22;32533;-33.854;18.542;2022-10-19T03:03:13;20.60;74.80
46043;DHT22;32533;-33.854;18.542;2022-10-19T03:05:40;20.60;74.70
46043;DHT22;32533;-33.854;18.542;2022-10-19T03:08:06;20.60;74.70
46043;DHT22;32533;-33.854;18.542;2022-10-19T03:10:33;20.60;74.80
46043;DHT22;32533;-33.854;18.542;2022-10-19T03:12:59;20.60;74.80
46043;DHT22;32533;-33.854;18.542;2022-10-19T03:15:25;20.60;74.60
46043;DHT22;32533;-33.854;18.542;2022-10-19T03:17:55;20.50;74.50
46043;DHT22;32533;-33.854;18.542;2022-10-19T03:20:21;20.50;74.40
46043;DHT22;32533;-33.854;18.542;2022-10-19T03:22:48;20.50;74.20
46043;DHT22;32533;-33.854;18.542;2022-10-19T03:25:15;20.50;74.10
46043;DHT22;32533;-33.854;18.542;2022-10-19T03:27:41;20.50;73.90
46043;DHT22;32533;-33.854;18.542;2022-10-19T03:30:08;20.50;73.90
46043;DHT22;32533;-33.854;18.542;2022-10-19T03:32:34;20.40;73.90
46043;DHT22;32533;-33.854;18.542;2022-10-19T03:35:01;20.40;73.80
46043;DHT22;32533;-33.854;18.542;2022-10-19T03:37:27;20.40;73.70
46043;DHT22;32533;-33.854;18.542;2022-10-19T03:39:54;20.40;73.60
46043;DHT22;32533;-33.854;18.542;2022-10-19T03:42:20;20.40;73.60
46043;DHT22;32533;-33.854;18.542;2022-10-19T03:44:46;20.30;73.50
46043;DHT22;32533;-33.854;18.542;2022-10-19T03:47:13;20.30;73.50
46043;DHT22;32533;-33.854;18.542;2022-10-19T03:49:40;20.30;73.40
46043;DHT22;32533;-33.854;18.542;2022-10-19T03:52:08;20.30;73.40
46043;DHT22;32533;-33.854;18.542;2022-10-19T03:54:35;20.30;73.30
46043;DHT22;32533;-33.854;18.542;2022-10-19T03:57:02;20.30;73.20
46043;DHT22;32533;-33.854;18.542;2022-10-19T03:59:34;20.20;73.10
46043;DHT22;32533;-33.854;18.542;2022-10-19T04:02:01;20.20;73.10
46043;DHT22;32533;-33.854;18.542;2022-10-19T04:04:28;20.20;73.10
46043;DHT22;32533;-33.854;18.542;2022-10-19T04:06:54;20.20;73.30
46043;DHT22;32533;-33.854;18.542;2022-10-19T04:09:22;20.10;74.00
46043;DHT22;32533;-33.854;18.542;2022-10-19T04:11:49;20.10;74.00
46043;DHT22;32533;-33.854;18.542;2022-10-19T04:14:17;20.20;73.80
46043;DHT22;32533;-33.854;18.542;2022-10-19T04:16:44;20.10;73.50
46043;DHT22;32533;-33.854;18.542;2022-10-19T04:19:14;20.10;73.30
46043;DHT22;32533;-33.854;18.542;2022-10-19T04:21:41;20.10;73.40
46043;DHT22;32533;-33.854;18.542;2022-10-19T04:24:17;20.10;73.50
46043;DHT22;32533;-33.854;18.542;2022-10-19T04:26:44;20.10;73.50
46043;DHT22;32533;-33.854;18.542;2022-10-19T04:29:12;20.10;73.40
46043;DHT22;32533;-33.854;18.542;2022-10-19T04:31:39;20.10;73.40
46043;DHT22;32533;-33.854;18.542;2022-10-19T04:34:06;20.10;73.30
46043;DHT22;32533;-33.854;18.542;2022-10-19T04:36:34;20.10;73.30
46043;DHT22;32533;-33.854;18.542;2022-10-19T04:39:01;20.10;73.40
46043;DHT22;32533;-33.854;18.542;2022-10-19T04:41:27;20.00;73.40
46043;DHT22;32533;-33.854;18.542;2022-10-19T04:43:56;20.10;73.70
46043;DHT22;32533;-33.854;18.542;2022-10-19T04:46:24;20.00;73.80
46043;DHT22;32533;-33.854;18.542;2022-10-19T04:48:51;20.00;73.90
46043;DHT22;32533;-33.854;18.542;2022-10-19T04:51:18;20.00;74.10
46043;DHT22;32533;-33.854;18.542;2022-10-19T04:53:45;20.00;74.20
46043;DHT22;32533;-33.854;18.542;2022-10-19T04:56:17;20.00;74.40
46043;DHT22;32533;-33.854;18.542;2022-10-19T04:58:44;20.00;74.60
46043;DHT22;32533;-33.854;18.542;2022-10-19T05:01:17;20.10;75.00
46043;DHT22;32533;-33.854;18.542;2022-10-19T05:03:44;20.00;75.10
46043;DHT22;32533;-33.854;18.542;2022-10-19T05:06:11;20.00;75.40
46043;DHT22;32533;-33.854;18.542;2022-10-19T05:08:39;20.00;75.70
46043;DHT22;32533;-33.854;18.542;2022-10-19T05:11:14;20.10;76.00
46043;DHT22;32533;-33.854;18.542;2022-10-19T05:13:42;20.00;76.30
46043;DHT22;32533;-33.854;18.542;2022-10-19T05:16:11;20.00;76.70
46043;DHT22;32533;-33.854;18.542;2022-10-19T05:18:38;20.10;77.10
46043;DHT22;32533;-33.854;18.542;2022-10-19T05:21:12;20.10;77.80
46043;DHT22;32533;-33.854;18.542;2022-10-19T05:23:40;20.10;78.70
46043;DHT22;32533;-33.854;18.542;2022-10-19T05:26:11;20.10;79.60
46043;DHT22;32533;-33.854;18.542;2022-10-19T05:28:37;20.10;80.10
46043;DHT22;32533;-33.854;18.542;2022-10-19T05:31:09;20.20;80.50
46043;DHT22;32533;-33.854;18.542;2022-10-19T05:33:36;20.20;80.80
46043;DHT22;32533;-33.854;18.542;2022-10-19T05:36:30;20.20;80.90
46043;DHT22;32533;-33.854;18.542;2022-10-19T05:39:08;20.20;81.30
46043;DHT22;32533;-33.854;18.542;2022-10-19T05:41:37;20.30;81.60
46043;DHT22;32533;-33.854;18.542;2022-10-19T05:44:04;20.30;81.80
46043;DHT22;32533;-33.854;18.542;2022-10-19T05:46:32;20.30;82.10
46043;DHT22;32533;-33.854;18.542;2022-10-19T05:48:59;20.30;82.40
46043;DHT22;32533;-33.854;18.542;2022-10-19T05:51:26;20.40;82.80
46043;DHT22;32533;-33.854;18.542;2022-10-19T05:53:54;20.40;82.90
46043;DHT22;32533;-33.854;18.542;2022-10-19T05:56:22;20.40;83.20
46043;DHT22;32533;-33.854;18.542;2022-10-19T05:58:50;20.40;83.40
46043;DHT22;32533;-33.854;18.542;2022-10-19T06:01:18;20.50;83.40
46043;DHT22;32533;-33.854;18.542;2022-10-19T06:03:46;20.50;83.30
46043;DHT22;32533;-33.854;18.542;2022-10-19T06:06:12;20.50;83.30
46043;DHT22;32533;-33.854;18.542;2022-10-19T06:08:39;20.60;83.30
46043;DHT22;32533;-33.854;18.542;2022-10-19T06:11:21;20.60;83.20
46043;DHT22;32533;-33.854;18.542;2022-10-19T06:13:50;20.60;83.20
46043;DHT22;32533;-33.854;18.542;2022-10-19T06:16:19;20.60;83.20
46043;DHT22;32533;-33.854;18.542;2022-10-19T06:18:46;20.70;83.20
46043;DHT22;32533;-33.854;18.542;2022-10-19T06:21:17;20.70;83.80
46043;DHT22;32533;-33.854;18.542;2022-10-19T06:23:48;20.70;83.20
46043;DHT22;32533;-33.854;18.542;2022-10-19T06:26:15;20.80;83.20
46043;DHT22;32533;-33.854;18.542;2022-10-19T06:28:42;20.80;83.20
46043;DHT22;32533;-33.854;18.542;2022-10-19T06:31:09;20.90;83.30
46043;DHT22;32533;-33.854;18.542;2022-10-19T06:33:39;20.90;83.20
46043;DHT22;32533;-33.854;18.542;2022-10-19T06:36:07;20.90;83.20
46043;DHT22;32533;-33.854;18.542;2022-10-19T06:38:34;21.00;83.10
46043;DHT22;32533;-33.854;18.542;2022-10-19T06:41:01;21.00;83.00
46043;DHT22;32533;-33.854;18.542;2022-10-19T06:43:27;21.00;83.20
46043;DHT22;32533;-33.854;18.542;2022-10-19T06:45:54;21.10;83.80
46043;DHT22;32533;-33.854;18.542;2022-10-19T06:48:21;21.10;84.00
46043;DHT22;32533;-33.854;18.542;2022-10-19T06:51:02;21.20;84.20
46043;DHT22;32533;-33.854;18.542;2022-10-19T06:53:29;21.30;84.20
46043;DHT22;32533;-33.854;18.542;2022-10-19T06:56:00;21.30;84.10
46043;DHT22;32533;-33.854;18.542;2022-10-19T06:58:28;21.30;84.00
46043;DHT22;32533;-33.854;18.542;2022-10-19T07:00:59;21.40;84.00
46043;DHT22;32533;-33.854;18.542;2022-10-19T07:03:27;21.40;83.80
46043;DHT22;32533;-33.854;18.542;2022-10-19T07:06:03;21.40;83.60
46043;DHT22;32533;-33.854;18.542;2022-10-19T07:08:31;21.50;83.60
46043;DHT22;32533;-33.854;18.542;2022-10-19T07:11:00;21.50;83.40
46043;DHT22;32533;-33.854;18.542;2022-10-19T07:13:28;21.60;83.30
46043;DHT22;32533;-33.854;18.542;2022-10-19T07:16:00;21.60;83.10
46043;DHT22;32533;-33.854;18.542;2022-10-19T07:18:28;21.70;82.90
46043;DHT22;32533;-33.854;18.542;2022-10-19T07:20:59;21.70;82.70
46043;DHT22;32533;-33.854;18.542;2022-10-19T07:23:28;21.70;82.40
46043;DHT22;32533;-33.854;18.542;2022-10-19T07:25:55;21.80;82.30
46043;DHT22;32533;-33.854;18.542;2022-10-19T07:28:28;21.90;82.30
46043;DHT22;32533;-33.854;18.542;2022-10-19T07:30:55;21.90;82.10
46043;DHT22;32533;-33.854;18.542;2022-10-19T07:33:22;22.00;81.90
46043;DHT22;32533;-33.854;18.542;2022-10-19T07:35:48;22.00;81.70
46043;DHT22;32533;-33.854;18.542;2022-10-19T07:38:15;22.10;81.60
46043;DHT22;32533;-33.854;18.542;2022-10-19T07:40:41;22.10;81.50
46043;DHT22;32533;-33.854;18.542;2022-10-19T07:43:08;22.20;81.60
46043;DHT22;32533;-33.854;18.542;2022-10-19T07:45:34;22.30;81.60
46043;DHT22;32533;-33.854;18.542;2022-10-19T07:48:01;22.40;81.50
46043;DHT22;32533;-33.854;18.542;2022-10-19T07:50:27;22.40;81.20
46043;DHT22;32533;-33.854;18.542;2022-10-19T07:52:54;22.40;81.00
46043;DHT22;32533;-33.854;18.542;2022-10-19T07:55:21;22.50;80.90
46043;DHT22;32533;-33.854;18.542;2022-10-19T07:57:48;22.50;80.70
46043;DHT22;32533;-33.854;18.542;2022-10-19T08:00:15;22.60;80.60
46043;DHT22;32533;-33.854;18.542;2022-10-19T08:02:43;22.60;80.40
46043;DHT22;32533;-33.854;18.542;2022-10-19T08:05:09;22.70;80.30
46043;DHT22;32533;-33.854;18.542;2022-10-19T08:07:36;22.80;80.00
46043;DHT22;32533;-33.854;18.542;2022-10-19T08:10:03;22.80;79.90
46043;DHT22;32533;-33.854;18.542;2022-10-19T08:12:30;22.90;80.00
46043;DHT22;32533;-33.854;18.542;2022-10-19T08:14:57;22.90;80.00
46043;DHT22;32533;-33.854;18.542;2022-10-19T08:17:23;23.00;80.00
46043;DHT22;32533;-33.854;18.542;2022-10-19T08:19:50;23.00;79.60
46043;DHT22;32533;-33.854;18.542;2022-10-19T08:22:16;23.10;79.40
46043;DHT22;32533;-33.854;18.542;2022-10-19T08:24:43;23.10;79.00
46043;DHT22;32533;-33.854;18.542;2022-10-19T08:27:09;23.10;78.70
46043;DHT22;32533;-33.854;18.542;2022-10-19T08:29:36;23.20;78.20
46043;DHT22;32533;-33.854;18.542;2022-10-19T08:32:02;23.10;77.90
46043;DHT22;32533;-33.854;18.542;2022-10-19T08:34:28;23.20;77.70
46043;DHT22;32533;-33.854;18.542;2022-10-19T08:36:55;23.20;77.40
46043;DHT22;32533;-33.854;18.542;2022-10-19T08:39:21;23.30;77.00
46043;DHT22;32533;-33.854;18.542;2022-10-19T08:50:26;23.50;76.60
46043;DHT22;32533;-33.854;18.542;2022-10-19T08:53:02;23.60;76.50
46043;DHT22;32533;-33.854;18.542;2022-10-19T09:01:54;23.60;76.40
46043;DHT22;32533;-33.854;18.542;2022-10-19T09:04:38;23.70;76.70
46043;DHT22;32533;-33.854;18.542;2022-10-19T09:09:44;23.70;76.50
46043;DHT22;32533;-33.854;18.542;2022-10-19T09:12:18;23.70;76.30
46043;DHT22;32533;-33.854;18.542;2022-10-19T09:14:56;23.70;76.00
46043;DHT22;32533;-33.854;18.542;2022-10-19T09:17:24;23.80;76.00
46043;DHT22;32533;-33.854;18.542;2022-10-19T09:19:51;23.80;75.90
46043;DHT22;32533;-33.854;18.542;2022-10-19T09:25:04;23.80;75.30
46043;DHT22;32533;-33.854;18.542;2022-10-19T09:27:39;23.80;75.20
46043;DHT22;32533;-33.854;18.542;2022-10-19T09:32:42;23.80;74.70
46043;DHT22;32533;-33.854;18.542;2022-10-19T09:35:29;23.80;74.50
46043;DHT22;32533;-33.854;18.542;2022-10-19T09:37:57;23.90;74.50
46043;DHT22;32533;-33.854;18.542;2022-10-19T09:40:27;23.90;74.30
46043;DHT22;32533;-33.854;18.542;2022-10-19T09:42:54;23.90;73.80
46043;DHT22;32533;-33.854;18.542;2022-10-19T09:51:14;23.90;72.20
46043;DHT22;32533;-33.854;18.542;2022-10-19T09:53:49;23.90;72.00
46043;DHT22;32533;-33.854;18.542;2022-10-19T09:56:19;24.00;71.80
46043;DHT22;32533;-33.854;18.542;2022-10-19T09:58:57;24.00;71.70
46043;DHT22;32533;-33.854;18.542;2022-10-19T10:01:35;24.00;71.50
46043;DHT22;32533;-33.854;18.542;2022-10-19T10:04:16;24.00;71.40
46043;DHT22;32533;-33.854;18.542;2022-10-19T10:06:43;24.00;71.50
46043;DHT22;32533;-33.854;18.542;2022-10-19T10:09:26;24.00;71.40
46043;DHT22;32533;-33.854;18.542;2022-10-19T10:11:56;24.00;71.20
46043;DHT22;32533;-33.854;18.542;2022-10-19T10:14:33;24.10;71.10
46043;DHT22;32533;-33.854;18.542;2022-10-19T10:17:15;24.10;71.00
46043;DHT22;32533;-33.854;18.542;2022-10-19T10:22:34;24.10;70.60
46043;DHT22;32533;-33.854;18.542;2022-10-19T10:25:16;24.10;70.60
46043;DHT22;32533;-33.854;18.542;2022-10-19T10:30:34;24.20;70.30
46043;DHT22;32533;-33.854;18.542;2022-10-19T10:33:01;24.20;70.10
46043;DHT22;32533;-33.854;18.542;2022-10-19T10:35:33;24.20;69.80
46043;DHT22;32533;-33.854;18.542;2022-10-19T10:38:06;24.20;69.70
46043;DHT22;32533;-33.854;18.542;2022-10-19T10:40:34;24.20;69.70
46043;DHT22;32533;-33.854;18.542;2022-10-19T10:43:07;24.30;69.60
46043;DHT22;32533;-33.854;18.542;2022-10-19T10:45:41;24.30;69.50
46043;DHT22;32533;-33.854;18.542;2022-10-19T10:50:40;24.40;69.40
46043;DHT22;32533;-33.854;18.542;2022-10-19T10:53:37;24.40;69.50
46043;DHT22;32533;-33.854;18.542;2022-10-19T10:56:19;24.50;69.60
46043;DHT22;32533;-33.854;18.542;2022-10-19T10:59:27;24.50;69.60
46043;DHT22;32533;-33.854;18.542;2022-10-19T11:02:02;24.60;69.70
46043;DHT22;32533;-33.854;18.542;2022-10-19T11:04:33;24.60;69.70
46043;DHT22;32533;-33.854;18.542;2022-10-19T11:07:13;24.70;69.70
46043;DHT22;32533;-33.854;18.542;2022-10-19T11:09:58;24.70;69.70
46043;DHT22;32533;-33.854;18.542;2022-10-19T11:13:13;24.70;69.70
46043;DHT22;32533;-33.854;18.542;2022-10-19T11:18:35;24.90;69.60
46043;DHT22;32533;-33.854;18.542;2022-10-19T11:21:48;24.90;69.60
46043;DHT22;32533;-33.854;18.542;2022-10-19T11:30:21;24.90;69.10
46043;DHT22;32533;-33.854;18.542;2022-10-19T11:33:13;24.90;68.90
46043;DHT22;32533;-33.854;18.542;2022-10-19T11:35:49;24.90;68.80
46043;DHT22;32533;-33.854;18.542;2022-10-19T11:41:37;24.90;68.70
46043;DHT22;32533;-33.854;18.542;2022-10-19T12:00:56;25.00;68.70
46043;DHT22;32533;-33.854;18.542;2022-10-19T12:04:17;25.10;68.70
46043;DHT22;32533;-33.854;18.542;2022-10-19T12:06:54;25.10;68.60
46043;DHT22;32533;-33.854;18.542;2022-10-19T12:14:43;25.10;68.50
46043;DHT22;32533;-33.854;18.542;2022-10-19T12:17:26;25.10;68.50
46043;DHT22;32533;-33.854;18.542;2022-10-19T12:19:56;25.10;68.30
46043;DHT22;32533;-33.854;18.542;2022-10-19T12:22:27;25.20;68.30
46043;DHT22;32533;-33.854;18.542;2022-10-19T12:24:57;25.20;68.30
46043;DHT22;32533;-33.854;18.542;2022-10-19T12:27:33;25.20;68.00
46043;DHT22;32533;-33.854;18.542;2022-10-19T12:30:21;25.20;67.90
46043;DHT22;32533;-33.854;18.542;2022-10-19T12:33:11;25.20;67.80
46043;DHT22;32533;-33.854;18.542;2022-10-19T12:38:51;25.30;67.60
46043;DHT22;32533;-33.854;18.542;2022-10-19T12:47:21;25.30;67.20
46043;DHT22;32533;-33.854;18.542;2022-10-19T12:49:52;25.30;67.30
46043;DHT22;32533;-33.854;18.542;2022-10-19T12:57:42;25.40;66.90
46043;DHT22;32533;-33.854;18.542;2022-10-19T13:00:25;25.40;66.80
46043;DHT22;32533;-33.854;18.542;2022-10-19T13:03:13;25.50;66.90
46043;DHT22;32533;-33.854;18.542;2022-10-19T13:05:41;25.50;66.80
46043;DHT22;32533;-33.854;18.542;2022-10-19T13:08:08;25.50;66.70
46043;DHT22;32533;-33.854;18.542;2022-10-19T13:10:34;25.60;66.80
46043;DHT22;32533;-33.854;18.542;2022-10-19T13:13:01;25.60;66.90
46043;DHT22;32533;-33.854;18.542;2022-10-19T13:18:11;25.60;67.50
46043;DHT22;32533;-33.854;18.542;2022-10-19T13:25:34;25.50;67.00
46043;DHT22;32533;-33.854;18.542;2022-10-19T13:36:05;25.50;67.60
46043;DHT22;32533;-33.854;18.542;2022-10-19T13:41:23;25.50;68.00
46043;DHT22;32533;-33.854;18.542;2022-10-19T13:52:25;25.40;68.00
46043;DHT22;32533;-33.854;18.542;2022-10-19T13:55:09;25.30;68.30
46043;DHT22;32533;-33.854;18.542;2022-10-19T14:03:42;25.30;67.90
46043;DHT22;32533;-33.854;18.542;2022-10-19T14:06:43;25.30;67.90
46043;DHT22;32533;-33.854;18.542;2022-10-19T14:12:08;25.30;68.40
46043;DHT22;32533;-33.854;18.542;2022-10-19T14:14:42;25.30;67.70
46043;DHT22;32533;-33.854;18.542;2022-10-19T14:17:29;25.30;67.70
46043;DHT22;32533;-33.854;18.542;2022-10-19T14:19:59;25.30;67.80
46043;DHT22;32533;-33.854;18.542;2022-10-19T14:22:26;25.30;67.80
46043;DHT22;32533;-33.854;18.542;2022-10-19T14:27:40;25.30;67.80
46043;DHT22;32533;-33.854;18.542;2022-10-19T14:30:27;25.30;67.90
46043;DHT22;32533;-33.854;18.542;2022-10-19T14:32:55;25.30;67.80
46043;DHT22;32533;-33.854;18.542;2022-10-19T14:35:27;25.30;67.80
46043;DHT22;32533;-33.854;18.542;2022-10-19T14:37:56;25.20;67.70
46043;DHT22;32533;-33.854;18.542;2022-10-19T14:40:29;25.20;67.80
46043;DHT22;32533;-33.854;18.542;2022-10-19T14:42:57;25.20;67.80
46043;DHT22;32533;-33.854;18.542;2022-10-19T14:45:31;25.20;67.90
46043;DHT22;32533;-33.854;18.542;2022-10-19T14:48:00;25.20;68.10
46043;DHT22;32533;-33.854;18.542;2022-10-19T14:50:46;25.20;68.20
46043;DHT22;32533;-33.854;18.542;2022-10-19T14:53:36;25.20;68.10
46043;DHT22;32533;-33.854;18.542;2022-10-19T14:56:15;25.10;68.10
46043;DHT22;32533;-33.854;18.542;2022-10-19T14:59:15;25.10;68.20
46043;DHT22;32533;-33.854;18.542;2022-10-19T15:01:48;25.10;68.20
46043;DHT22;32533;-33.854;18.542;2022-10-19T15:04:21;24.90;69.00
46043;DHT22;32533;-33.854;18.542;2022-10-19T15:06:49;24.80;70.60
46043;DHT22;32533;-33.854;18.542;2022-10-19T15:09:31;24.80;71.20
46043;DHT22;32533;-33.854;18.542;2022-10-19T15:12:16;24.90;70.80
46043;DHT22;32533;-33.854;18.542;2022-10-19T15:14:43;24.90;69.80
46043;DHT22;32533;-33.854;18.542;2022-10-19T15:17:30;24.90;69.70
46043;DHT22;32533;-33.854;18.542;2022-10-19T15:19:58;24.90;70.10
46043;DHT22;32533;-33.854;18.542;2022-10-19T15:27:35;24.90;69.50
46043;DHT22;32533;-33.854;18.542;2022-10-19T15:30:21;24.90;69.30
46043;DHT22;32533;-33.854;18.542;2022-10-19T15:35:28;24.70;69.30
46043;DHT22;32533;-33.854;18.542;2022-10-19T15:40:41;24.70;69.50
46043;DHT22;32533;-33.854;18.542;2022-10-19T15:43:35;24.70;69.60
46043;DHT22;32533;-33.854;18.542;2022-10-19T15:46:07;24.60;69.70
46043;DHT22;32533;-33.854;18.542;2022-10-19T15:48:47;24.60;69.80
46043;DHT22;32533;-33.854;18.542;2022-10-19T15:53:55;24.60;69.90
46043;DHT22;32533;-33.854;18.542;2022-10-19T15:56:25;24.50;70.00
46043;DHT22;32533;-33.854;18.542;2022-10-19T15:58:53;24.50;70.10
46043;DHT22;32533;-33.854;18.542;2022-10-19T16:01:22;24.50;70.20
46043;DHT22;32533;-33.854;18.542;2022-10-19T18:22:13;23.00;77.30
46043;DHT22;32533;-33.854;18.542;2022-10-19T18:24:40;23.00;77.10
46043;DHT22;32533;-33.854;18.542;2022-10-19T18:27:06;23.00;76.80
46043;DHT22;32533;-33.854;18.542;2022-10-19T18:29:37;23.10;76.60
46043;DHT22;32533;-33.854;18.542;2022-10-19T18:32:03;23.10;76.60
46043;DHT22;32533;-33.854;18.542;2022-10-19T18:34:31;23.10;76.70
46043;DHT22;32533;-33.854;18.542;2022-10-19T18:36:58;23.10;76.90
46043;DHT22;32533;-33.854;18.542;2022-10-19T18:39:24;23.10;77.10
46043;DHT22;32533;-33.854;18.542;2022-10-19T18:41:55;23.20;77.20
46043;DHT22;32533;-33.854;18.542;2022-10-19T18:44:22;23.20;77.20
46043;DHT22;32533;-33.854;18.542;2022-10-19T18:46:49;23.20;77.30
46043;DHT22;32533;-33.854;18.542;2022-10-19T18:49:16;23.20;77.40
46043;DHT22;32533;-33.854;18.542;2022-10-19T18:51:42;23.20;77.30
46043;DHT22;32533;-33.854;18.542;2022-10-19T18:54:10;23.20;77.20
46043;DHT22;32533;-33.854;18.542;2022-10-19T18:56:37;23.20;77.20
46043;DHT22;32533;-33.854;18.542;2022-10-19T18:59:04;23.20;77.10
46043;DHT22;32533;-33.854;18.542;2022-10-19T19:01:32;23.20;77.10
46043;DHT22;32533;-33.854;18.542;2022-10-19T19:04:07;23.20;77.10
46043;DHT22;32533;-33.854;18.542;2022-10-19T19:06:35;23.20;77.10
46043;DHT22;32533;-33.854;18.542;2022-10-19T19:09:06;23.20;77.10
46043;DHT22;32533;-33.854;18.542;2022-10-19T19:11:38;23.20;77.10
46043;DHT22;32533;-33.854;18.542;2022-10-19T19:14:25;23.20;77.10
46043;DHT22;32533;-33.854;18.542;2022-10-19T19:17:11;23.20;77.20
46043;DHT22;32533;-33.854;18.542;2022-10-19T19:19:38;23.20;77.20
46043;DHT22;32533;-33.854;18.542;2022-10-19T19:22:08;23.20;77.20
46043;DHT22;32533;-33.854;18.542;2022-10-19T19:24:34;23.20;77.30
46043;DHT22;32533;-33.854;18.542;2022-10-19T19:27:01;23.20;77.30
46043;DHT22;32533;-33.854;18.542;2022-10-19T19:29:27;23.20;77.30
46043;DHT22;32533;-33.854;18.542;2022-10-19T19:31:59;23.10;77.10
46043;DHT22;32533;-33.854;18.542;2022-10-19T19:34:26;23.10;77.10
46043;DHT22;32533;-33.854;18.542;2022-10-19T19:36:52;23.10;77.00
46043;DHT22;32533;-33.854;18.542;2022-10-19T19:39:22;23.10;76.90
46043;DHT22;32533;-33.854;18.542;2022-10-19T19:41:50;23.10;76.80
46043;DHT22;32533;-33.854;18.542;2022-10-19T19:44:17;23.10;76.70
46043;DHT22;32533;-33.854;18.542;2022-10-19T19:46:43;23.10;76.60
46043;DHT22;32533;-33.854;18.542;2022-10-19T19:49:32;23.10;76.50
46043;DHT22;32533;-33.854;18.542;2022-10-19T19:52:19;23.10;76.40
46043;DHT22;32533;-33.854;18.542;2022-10-19T19:54:45;23.10;76.30
46043;DHT22;32533;-33.854;18.542;2022-10-19T19:57:18;23.10;76.20
46043;DHT22;32533;-33.854;18.542;2022-10-19T19:59:44;23.10;76.00
46043;DHT22;32533;-33.854;18.542;2022-10-19T20:02:11;23.10;75.90
46043;DHT22;32533;-33.854;18.542;2022-10-19T20:04:37;23.10;75.70
46043;DHT22;32533;-33.854;18.542;2022-10-19T20:07:04;23.00;75.50
46043;DHT22;32533;-33.854;18.542;2022-10-19T20:09:30;23.00;75.20
46043;DHT22;32533;-33.854;18.542;2022-10-19T20:11:57;23.00;75.00
46043;DHT22;32533;-33.854;18.542;2022-10-19T20:14:23;23.00;74.80
46043;DHT22;32533;-33.854;18.542;2022-10-19T20:16:50;23.00;74.60
46043;DHT22;32533;-33.854;18.542;2022-10-19T20:19:16;23.00;74.50
46043;DHT22;32533;-33.854;18.542;2022-10-19T20:21:43;23.00;74.20
46043;DHT22;32533;-33.854;18.542;2022-10-19T20:24:10;23.00;74.00
46043;DHT22;32533;-33.854;18.542;2022-10-19T20:26:36;22.90;73.70
46043;DHT22;32533;-33.854;18.542;2022-10-19T20:29:04;22.90;73.40
46043;DHT22;32533;-33.854;18.542;2022-10-19T20:31:30;22.90;73.20
46043;DHT22;32533;-33.854;18.542;2022-10-19T20:34:09;22.90;73.00
46043;DHT22;32533;-33.854;18.542;2022-10-19T20:36:36;22.90;73.00
46043;DHT22;32533;-33.854;18.542;2022-10-19T20:39:03;22.90;73.00
46043;DHT22;32533;-33.854;18.542;2022-10-19T20:41:29;22.90;72.90
46043;DHT22;32533;-33.854;18.542;2022-10-19T20:43:56;22.90;73.10
46043;DHT22;32533;-33.854;18.542;2022-10-19T20:46:25;22.80;73.10
46043;DHT22;32533;-33.854;18.542;2022-10-19T20:48:53;22.80;73.00
46043;DHT22;32533;-33.854;18.542;2022-10-19T20:51:33;22.80;73.00
46043;DHT22;32533;-33.854;18.542;2022-10-19T20:54:04;22.80;73.10
46043;DHT22;32533;-33.854;18.542;2022-10-19T20:56:33;22.80;73.10
46043;DHT22;32533;-33.854;18.542;2022-10-19T20:59:02;22.80;73.10
46043;DHT22;32533;-33.854;18.542;2022-10-19T21:01:30;22.70;73.00
46043;DHT22;32533;-33.854;18.542;2022-10-19T21:03:59;22.70;73.00
46043;DHT22;32533;-33.854;18.542;2022-10-19T21:06:29;22.70;72.60
46043;DHT22;32533;-33.854;18.542;2022-10-19T21:08:56;22.70;72.20
46043;DHT22;32533;-33.854;18.542;2022-10-19T21:11:25;22.70;71.90
46043;DHT22;32533;-33.854;18.542;2022-10-19T21:13:56;22.70;71.50
46043;DHT22;32533;-33.854;18.542;2022-10-19T21:16:24;22.60;71.10
46043;DHT22;32533;-33.854;18.542;2022-10-19T21:19:01;22.70;70.80
46043;DHT22;32533;-33.854;18.542;2022-10-19T21:21:30;22.60;70.20
46043;DHT22;32533;-33.854;18.542;2022-10-19T21:23:59;22.60;69.90
46043;DHT22;32533;-33.854;18.542;2022-10-19T21:26:30;22.60;70.00
46043;DHT22;32533;-33.854;18.542;2022-10-19T21:28:56;22.60;70.20
46043;DHT22;32533;-33.854;18.542;2022-10-19T21:31:24;22.60;70.40
46043;DHT22;32533;-33.854;18.542;2022-10-19T21:33:52;22.60;70.30
46043;DHT22;32533;-33.854;18.542;2022-10-19T21:36:20;22.60;69.90
46043;DHT22;32533;-33.854;18.542;2022-10-19T21:38:47;22.60;69.50
46043;DHT22;32533;-33.854;18.542;2022-10-19T21:41:16;22.50;69.10
46043;DHT22;32533;-33.854;18.542;2022-10-19T21:43:44;22.50;68.70
46043;DHT22;32533;-33.854;18.542;2022-10-19T21:46:12;22.50;68.50
46043;DHT22;32533;-33.854;18.542;2022-10-19T21:48:39;22.50;68.50
46043;DHT22;32533;-33.854;18.542;2022-10-19T21:53:55;22.40;68.50
46043;DHT22;32533;-33.854;18.542;2022-10-19T21:56:22;22.40;68.90
46043;DHT22;32533;-33.854;18.542;2022-10-19T21:58:50;22.50;69.20
46043;DHT22;32533;-33.854;18.542;2022-10-19T22:01:19;22.40;69.20
46043;DHT22;32533;-33.854;18.542;2022-10-19T22:03:46;22.40;68.80
46043;DHT22;32533;-33.854;18.542;2022-10-19T22:06:13;22.40;68.60
46043;DHT22;32533;-33.854;18.542;2022-10-19T22:08:43;22.40;68.80
46043;DHT22;32533;-33.854;18.542;2022-10-19T22:11:11;22.40;69.00
46043;DHT22;32533;-33.854;18.542;2022-10-19T22:13:38;22.40;69.10
46043;DHT22;32533;-33.854;18.542;2022-10-19T22:16:16;22.40;69.10
46043;DHT22;32533;-33.854;18.542;2022-10-19T22:18:43;22.30;69.00
46043;DHT22;32533;-33.854;18.542;2022-10-19T22:21:13;22.30;68.80
46043;DHT22;32533;-33.854;18.542;2022-10-19T22:23:40;22.30;68.50